Helas — C4AZ2 — position and weather

sailwx.info

Track history (hours):
 
Tides and Currents Weather Stations Pressure Air Temp Water Temp Dewpoint Dewpoint Depression Visibility Wind Speed Wind Dir Waves Ship Positions

Helas

Last reported at 2014-Oct-24 09:33 UTC. Time now 2014-Oct-24 09:40 UTC.
Position N 51°17' E 001°48'.

Length 89 m; draft 5.4 m.

Type: Cargo ship. MMSI: 210031000.

Date/timePositionNaut miles runAvg speedWind from/ knotsBaromVisibWave heightAir tempDewpointWater temp
2014-Oct-24 09:33N 51°17' E 001°48'1111.3
2014-Oct-24 08:33N 51°27' E 001°57'1111.2
2014-Oct-24 07:32N 51°35' E 002°09'55 6.8
2014-Oct-23 23:32N 52°15' E 003°10'6 6.5
2014-Oct-23 22:33N 52°18' E 003°20'7 6.8
2014-Oct-23 21:33N 52°20' E 003°30'15 7.4
2014-Oct-23 19:33N 52°23' E 003°54'8 7.8
2014-Oct-23 18:33N 52°26' E 004°06'8 7.8
2014-Oct-23 17:33N 52°27' E 004°19'8 7.5
2014-Oct-23 16:34N 52°28' E 004°31'3 3.3
2014-Oct-23 15:33N 52°28' E 004°36'0 0.0
2014-Oct-23 14:33N 52°28' E 004°36'0 0.0
2014-Oct-23 13:30N 52°28' E 004°36'0 0.0
2014-Oct-23 12:33N 52°28' E 004°36'0 0.0
2014-Oct-23 11:32N 52°28' E 004°36'0 0.0
2014-Oct-23 10:32N 52°28' E 004°36'0 0.0
2014-Oct-23 09:32N 52°28' E 004°36'0 0.0
2014-Oct-23 08:32N 52°28' E 004°36'0 0.0
2014-Oct-23 07:32N 52°28' E 004°36'0 0.0
2014-Oct-23 06:32N 52°28' E 004°36'0 0.0
2014-Oct-23 05:32N 52°28' E 004°36'0 0.0
2014-Oct-23 04:32N 52°28' E 004°36'0 0.0
2014-Oct-23 03:32N 52°28' E 004°36'0 0.0
2014-Oct-23 02:32N 52°28' E 004°36'0 0.0
2014-Oct-23 01:32N 52°28' E 004°36'0 0.0
2014-Oct-23 00:32N 52°28' E 004°36'0 0.0
2014-Oct-22 23:32N 52°28' E 004°36'0 0.0
2014-Oct-22 22:32N 52°28' E 004°36'0 0.0
2014-Oct-22 21:32N 52°28' E 004°36'0 0.0
2014-Oct-22 20:29N 52°28' E 004°36'0 0.0
2014-Oct-22 19:32N 52°28' E 004°36'0 0.0
2014-Oct-22 18:32N 52°28' E 004°36'0 0.0
2014-Oct-22 17:32N 52°28' E 004°36'0 0.0
2014-Oct-22 16:32N 52°28' E 004°36'0 0.0
2014-Oct-22 15:32N 52°28' E 004°36'0 0.0
2014-Oct-22 14:32N 52°28' E 004°36'0 0.0
2014-Oct-22 13:29N 52°28' E 004°36'0 0.0
2014-Oct-22 12:32N 52°28' E 004°36'0 0.0
2014-Oct-22 10:32N 52°28' E 004°36'0 0.0
2014-Oct-22 09:32N 52°28' E 004°36'0 0.0
2014-Oct-22 08:32N 52°28' E 004°36'0 0.0
2014-Oct-22 07:32N 52°28' E 004°36'0 0.0
2014-Oct-22 06:32N 52°28' E 004°36'0 0.0
2014-Oct-22 05:32N 52°28' E 004°36'0 0.0
2014-Oct-22 04:29N 52°28' E 004°36'0 0.0
2014-Oct-22 03:31N 52°28' E 004°36'0 0.0
2014-Oct-22 02:31N 52°28' E 004°36'0 0.0
2014-Oct-22 01:31N 52°28' E 004°36'0 0.0
2014-Oct-22 00:31N 52°28' E 004°36'0 0.0
2014-Oct-21 23:31N 52°28' E 004°36'0 0.0
2014-Oct-21 22:31N 52°28' E 004°36'0 0.0
2014-Oct-21 21:31N 52°28' E 004°36'0 0.0
2014-Oct-21 20:31N 52°28' E 004°36'0 0.0
2014-Oct-21 19:31N 52°28' E 004°36'0 0.0
2014-Oct-21 18:31N 52°28' E 004°36'0 0.0
2014-Oct-21 17:31N 52°28' E 004°36'0 0.0
2014-Oct-21 16:31N 52°28' E 004°36'0 0.0
2014-Oct-21 15:31N 52°28' E 004°36'0 0.0
2014-Oct-21 14:31N 52°28' E 004°36'0 0.0
2014-Oct-21 13:31N 52°28' E 004°36'0 0.0
2014-Oct-21 12:31N 52°28' E 004°36'0 0.0
2014-Oct-21 11:31N 52°28' E 004°36'0 0.0
2014-Oct-21 10:31N 52°28' E 004°36'0 0.0
2014-Oct-21 09:31N 52°28' E 004°36'0 0.0
2014-Oct-21 08:31N 52°28' E 004°36'1 0.6
2014-Oct-21 07:34N 52°28' E 004°35'9 9.3
2014-Oct-21 06:33N 52°28' E 004°20'1010.1
2014-Oct-21 05:33N 52°28' E 004°04'8 8.1
2014-Oct-21 04:33N 52°25' E 003°51'7 7.5
2014-Oct-21 03:33N 52°21' E 003°41'25 8.5
2014-Oct-21 00:33N 52°08' E 003°05'1211.9
2014-Oct-20 23:33N 51°58' E 002°54'2411.8
2014-Oct-20 21:33N 51°40' E 002°30'1111.2
2014-Oct-20 20:33N 51°31' E 002°18'1010.5
2014-Oct-20 19:33N 51°23' E 002°09'10 9.8
2014-Oct-20 18:33N 51°14' E 002°03'10 9.6
2014-Oct-20 17:33N 51°08' E 001°51'9 9.1
2014-Oct-20 16:33N 51°02' E 001°40'9 9.4
2014-Oct-20 15:34N 50°55' E 001°30'  
2014-Oct-15 11:09N 47°54' W 005°22'  
Track history (hours):
 
Tides and Currents Weather Stations Pressure Air Temp Water Temp Dewpoint Dewpoint Depression Visibility Wind Speed Wind Dir Waves Ship Positions

Helas

Last reported at 2014-Oct-24 09:33 UTC. Time now 2014-Oct-24 09:40 UTC.
Position N 51°17' E 001°48'.

Length 89 m; draft 5.4 m.

Type: Cargo ship. MMSI: 210031000.

Date/timePositionNaut miles runAvg speedWind from/ knotsBaromVisibWave heightAir tempDewpointWater temp
2014-Oct-24 09:33N 51°17' E 001°48'1111.3
2014-Oct-24 08:33N 51°27' E 001°57'1111.2
2014-Oct-24 07:32N 51°35' E 002°09'55 6.8
2014-Oct-23 23:32N 52°15' E 003°10'6 6.5
2014-Oct-23 22:33N 52°18' E 003°20'7 6.8
2014-Oct-23 21:33N 52°20' E 003°30'15 7.4
2014-Oct-23 19:33N 52°23' E 003°54'8 7.8
2014-Oct-23 18:33N 52°26' E 004°06'8 7.8
2014-Oct-23 17:33N 52°27' E 004°19'8 7.5
2014-Oct-23 16:34N 52°28' E 004°31'3 3.3
2014-Oct-23 15:33N 52°28' E 004°36'0 0.0
2014-Oct-23 14:33N 52°28' E 004°36'0 0.0
2014-Oct-23 13:30N 52°28' E 004°36'0 0.0
2014-Oct-23 12:33N 52°28' E 004°36'0 0.0
2014-Oct-23 11:32N 52°28' E 004°36'0 0.0
2014-Oct-23 10:32N 52°28' E 004°36'0 0.0
2014-Oct-23 09:32N 52°28' E 004°36'0 0.0
2014-Oct-23 08:32N 52°28' E 004°36'0 0.0
2014-Oct-23 07:32N 52°28' E 004°36'0 0.0
2014-Oct-23 06:32N 52°28' E 004°36'0 0.0
2014-Oct-23 05:32N 52°28' E 004°36'0 0.0
2014-Oct-23 04:32N 52°28' E 004°36'0 0.0
2014-Oct-23 03:32N 52°28' E 004°36'0 0.0
2014-Oct-23 02:32N 52°28' E 004°36'0 0.0
2014-Oct-23 01:32N 52°28' E 004°36'0 0.0
2014-Oct-23 00:32N 52°28' E 004°36'0 0.0
2014-Oct-22 23:32N 52°28' E 004°36'0 0.0
2014-Oct-22 22:32N 52°28' E 004°36'0 0.0
2014-Oct-22 21:32N 52°28' E 004°36'0 0.0
2014-Oct-22 20:29N 52°28' E 004°36'0 0.0
2014-Oct-22 19:32N 52°28' E 004°36'0 0.0
2014-Oct-22 18:32N 52°28' E 004°36'0 0.0
2014-Oct-22 17:32N 52°28' E 004°36'0 0.0
2014-Oct-22 16:32N 52°28' E 004°36'0 0.0
2014-Oct-22 15:32N 52°28' E 004°36'0 0.0
2014-Oct-22 14:32N 52°28' E 004°36'0 0.0
2014-Oct-22 13:29N 52°28' E 004°36'0 0.0
2014-Oct-22 12:32N 52°28' E 004°36'0 0.0
2014-Oct-22 10:32N 52°28' E 004°36'0 0.0
2014-Oct-22 09:32N 52°28' E 004°36'0 0.0
2014-Oct-22 08:32N 52°28' E 004°36'0 0.0
2014-Oct-22 07:32N 52°28' E 004°36'0 0.0
2014-Oct-22 06:32N 52°28' E 004°36'0 0.0
2014-Oct-22 05:32N 52°28' E 004°36'0 0.0
2014-Oct-22 04:29N 52°28' E 004°36'0 0.0
2014-Oct-22 03:31N 52°28' E 004°36'0 0.0
2014-Oct-22 02:31N 52°28' E 004°36'0 0.0
2014-Oct-22 01:31N 52°28' E 004°36'0 0.0
2014-Oct-22 00:31N 52°28' E 004°36'0 0.0
2014-Oct-21 23:31N 52°28' E 004°36'0 0.0
2014-Oct-21 22:31N 52°28' E 004°36'0 0.0
2014-Oct-21 21:31N 52°28' E 004°36'0 0.0
2014-Oct-21 20:31N 52°28' E 004°36'0 0.0
2014-Oct-21 19:31N 52°28' E 004°36'0 0.0
2014-Oct-21 18:31N 52°28' E 004°36'0 0.0
2014-Oct-21 17:31N 52°28' E 004°36'0 0.0
2014-Oct-21 16:31N 52°28' E 004°36'0 0.0
2014-Oct-21 15:31N 52°28' E 004°36'0 0.0
2014-Oct-21 14:31N 52°28' E 004°36'0 0.0
2014-Oct-21 13:31N 52°28' E 004°36'0 0.0
2014-Oct-21 12:31N 52°28' E 004°36'0 0.0
2014-Oct-21 11:31N 52°28' E 004°36'0 0.0
2014-Oct-21 10:31N 52°28' E 004°36'0 0.0
2014-Oct-21 09:31N 52°28' E 004°36'0 0.0
2014-Oct-21 08:31N 52°28' E 004°36'1 0.6
2014-Oct-21 07:34N 52°28' E 004°35'9 9.3
2014-Oct-21 06:33N 52°28' E 004°20'1010.1
2014-Oct-21 05:33N 52°28' E 004°04'8 8.1
2014-Oct-21 04:33N 52°25' E 003°51'7 7.5
2014-Oct-21 03:33N 52°21' E 003°41'25 8.5
2014-Oct-21 00:33N 52°08' E 003°05'1211.9
2014-Oct-20 23:33N 51°58' E 002°54'2411.8
2014-Oct-20 21:33N 51°40' E 002°30'1111.2
2014-Oct-20 20:33N 51°31' E 002°18'1010.5
2014-Oct-20 19:33N 51°23' E 002°09'10 9.8
2014-Oct-20 18:33N 51°14' E 002°03'10 9.6
2014-Oct-20 17:33N 51°08' E 001°51'9 9.1
2014-Oct-20 16:33N 51°02' E 001°40'9 9.4
2014-Oct-20 15:34N 50°55' E 001°30'  
2014-Oct-15 11:09N 47°54' W 005°22'  

Dump ship's entire track history